Atlanta, NE

9:17 AM CDT on July 11, 2014 (GMT -0500)
Hastings Municipal (KHSI) Elev 1959 ft | 40.60 °N, 98.43 °W | Change Station

Current weather conditions updated 11 minutes ago

Partly Cloudy
Partly Cloudy
73 °F
Feels Like 73 °F
N
12
Wind Variable Wind from SSE

Today is forecast to be Much Warmer than yesterday.

Today
High -- | Low -- °F
--% Chance of Precip.
Yesterday
High -- | Low -- °F
Precip. -- in
6:16 AM 9:08 PM
Waxing Gibbous, 99% visible
Pressure 29.98 in
Visibility 10.0 miles
Clouds Few 700 ft
Dew Point 66 °F
Humidity 79%
Rainfall 0.00 in
Snow Depth Not available.
UV 3 out of 12
Pollen 4.00 out of 12
Air Quality Not available.
Flu Activity Sporadic
SPECI KHSI 111406Z AUTO 16010KT 10SM FEW007 23/19 A2998 RMK AO2 T02280189

More Conditions Fewer Conditions

Pressure 29.98 in
Visibility 10.0 miles
Clouds Few 700 ft
Dew Point 66 °F
Humidity 79%
Rainfall 0.00 in
Snow Depth Not available.
UV 3 out of 12
Pollen 4.00 out of 12
Air Quality Not available.
Flu Activity Sporadic
SPECI KHSI 111406Z AUTO 16010KT 10SM FEW007 23/19 A2998 RMK AO2 T02280189

More Conditions Fewer Conditions

10-Day Weather Forecast

Almanac

Astronomy

Jul. 11, 2014 Rise Set
Actual Time 6:16 AM CDT 9:08 PM CDT
Civil Twilight 5:44 AM CDT 9:40 PM CDT
Nautical Twilight 5:03 AM CDT 10:21 PM CDT
Astronomical Twilight 4:16 AM CDT 11:08 PM CDT
Moon 8:19 PM CDT 5:31 AM CDT
Length of Visible Light 15h 56m
Length of Day
14h 51m
Tomorrow will be 1m 11s shorter.
Waxing Gibbous, 99% of the Moon is Illuminated
Today
Waxing Gibbous
Jul 12
Full
Jul 18
Last Quarter
Jul 26
New
Aug 3
First Quarter

Today's Extremes

State Highs State Lows

Community

WunderPhotos

Upload Photos

1,732,472 photos uploaded!

Nearby

Snow Depth

Station Depth Elevation
No new snow has been reported.

Earthquake Activity

City Distance Mag. Time & Date
No recent earthquake activity has been reported nearby.
Minimum magnitude displayed is 2.5.

Coastal Water Temperatures

Place Temperature
No Stations Reporting

Nearby Weather Stations

Station Location Temp. Heat Index Dew Point Humidity Wind Precip. Elev Updated Type
MesoWest ODESS1 , Odessa, NE 67 °F - - - North  at  - 0.00 in / hr 2215 ft 8:00 AM CDT MADIS
SW Kearney, Kearney, NE 73.1 °F 72 °F 69 °F 87% SSE  at  4.0 mph 0.00 in / hr 2159 ft 9:16 AM CDT Rapid Fire
MesoWest OVERT1 , Overton, NE 69 °F - - - North  at  - 0.00 in / hr 2303 ft 8:00 AM CDT MADIS
Regency, Kearney, NE 70.3 °F - 67 °F 88% SW  at  4.9 mph 0.00 in / hr 2224 ft 9:16 AM CDT Rapid Fire

Show More Stations Show Fewer Stations